^^
Datos históricos de la estación: Murcia-Puente Tocinos
Diario Informe para Agosto 9, 2019 Unidades:  Métrico    Inglés   Ambas
Diario Semanal Mensual Anual Configurable
  Máximo: Mínimo: Media:
Temperatura: 40.3 °C 24.1 °C 32.2 °C
Punto de rocio: 22.3 °C 9.3 °C 14 °C
Humedad: 65% 17% 36%
Velocidad viento: 16.4km/h 0.0km/h 6.8km/h
Racha viento: 27.8km/h - -
Viento- - South
Presión: 1011.8 hPa 1008.1 hPa -
Precipitación: 0.0 mm    
Historical Graphs
 
 
Tabla de datos para Agosto 9, 2019
Hora Temperatura Punto de rocio Presión Viento Velocidad viento Racha viento Humedad Intensidad lluvia(por hora) Nubes
00:00 28.5 °C 17.7 °C 1011.0 hPa NW 2.3 km/h 3.7 km/h 52% 0.0 mm CLR
00:05 28.5 °C 17.4 °C 1011.2 hPa NW 2.3 km/h   51% 0.0 mm CLR
00:10 28.6 °C 17.4 °C 1011.2 hPa Calm   3.7 km/h 51% 0.0 mm CLR
00:15 28.6 °C 17.4 °C 1011.2 hPa Calm     51% 0.0 mm CLR
00:20 28.6 °C 17.4 °C 1011.1 hPa NNE 2.3 km/h 5.6 km/h 51% 0.0 mm CLR
00:25 28.6 °C 17.4 °C 1011.1 hPa NNE 2.3 km/h 5.6 km/h 51% 0.0 mm CLR
00:30 28.4 °C 17.6 °C 1011.1 hPa NE 3.2 km/h 3.7 km/h 52% 0.0 mm CLR
00:35 28.3 °C 17.8 °C 1011.0 hPa NE 3.2 km/h 3.7 km/h 53% 0.0 mm CLR
00:40 28.3 °C 17.8 °C 1011.0 hPa NE 2.3 km/h 3.7 km/h 53% 0.0 mm CLR
00:45 28.2 °C 18.0 °C 1011.0 hPa NE 2.3 km/h 5.6 km/h 54% 0.0 mm CLR
00:50 28.1 °C 17.9 °C 1011.1 hPa NW 2.3 km/h 5.6 km/h 54% 0.0 mm CLR
00:55 28.1 °C 18.2 °C 1011.1 hPa NW 2.3 km/h 5.6 km/h 55% 0.0 mm CLR
01:00 28.0 °C 18.4 °C 1011.1 hPa NW 3.9 km/h 5.6 km/h 56% 0.0 mm CLR
01:05 27.9 °C 18.6 °C 1011.2 hPa NW 3.9 km/h 5.6 km/h 57% 0.0 mm CLR
01:10 27.8 °C 18.5 °C 1011.2 hPa NW 2.9 km/h 3.7 km/h 57% 0.0 mm CLR
01:15 27.7 °C 18.4 °C 1011.2 hPa NW 2.9 km/h   57% 0.0 mm CLR
01:20 27.7 °C 18.7 °C 1011.2 hPa Calm     58% 0.0 mm CLR
01:25 27.7 °C 18.7 °C 1011.2 hPa Calm     58% 0.0 mm CLR
01:30 27.7 °C 18.4 °C 1011.2 hPa Calm   3.7 km/h 57% 0.0 mm CLR
01:35 27.7 °C 18.4 °C 1011.2 hPa Calm   3.2 km/h 57% 0.0 mm CLR
01:40 27.6 °C 18.6 °C 1011.2 hPa Calm   3.7 km/h 58% 0.0 mm CLR
01:45 27.6 °C 18.6 °C 1011.2 hPa Calm   3.7 km/h 58% 0.0 mm CLR
01:50 27.6 °C 18.9 °C 1011.2 hPa Calm     59% 0.0 mm CLR
01:55 27.6 °C 18.9 °C 1011.2 hPa Calm   7.4 km/h 59% 0.0 mm CLR
02:00 27.6 °C 18.3 °C 1011.2 hPa South 4.7 km/h 5.8 km/h 57% 0.0 mm CLR
02:05 27.6 °C 18.1 °C 1011.3 hPa South 4.7 km/h 6.9 km/h 56% 0.0 mm CLR
02:10 27.6 °C 17.7 °C 1011.3 hPa SSE 3.2 km/h 7.4 km/h 55% 0.0 mm CLR
02:15 27.6 °C 17.4 °C 1011.3 hPa South 3.2 km/h 7.4 km/h 54% 0.0 mm CLR
02:20 27.5 °C 15.8 °C 1011.3 hPa SSW 5.0 km/h 7.4 km/h 49% 0.0 mm CLR
02:25 27.6 °C 15.3 °C 1011.3 hPa SSW 5.0 km/h 5.6 km/h 47% 0.0 mm CLR
02:30 27.7 °C 14.7 °C 1011.3 hPa SSE 4.7 km/h 7.4 km/h 45% 0.0 mm CLR
02:35 27.8 °C 16.4 °C 1011.4 hPa SSE 4.7 km/h 3.7 km/h 50% 0.0 mm CLR
02:40 27.7 °C 16.7 °C 1011.4 hPa South 3.2 km/h 3.9 km/h 51% 0.0 mm CLR
02:45 27.6 °C 14.9 °C 1011.4 hPa SSE 3.2 km/h 7.4 km/h 46% 0.0 mm CLR
02:50 27.6 °C 14.9 °C 1011.2 hPa South 4.7 km/h 5.6 km/h 46% 0.0 mm CLR
02:55 27.5 °C 14.5 °C 1011.2 hPa South 4.7 km/h 3.7 km/h 45% 0.0 mm CLR
03:00 27.4 °C 15.1 °C 1011.2 hPa South 2.9 km/h 5.6 km/h 47% 0.0 mm CLR
03:05 27.4 °C 15.4 °C 1011.2 hPa SSE 2.9 km/h 8.4 km/h 48% 0.0 mm CLR
03:10 27.1 °C 14.8 °C 1011.2 hPa SSE 4.7 km/h 7.4 km/h 47% 0.0 mm CLR
03:15 26.9 °C 14.6 °C 1011.2 hPa SSE 4.7 km/h 7.4 km/h 47% 0.0 mm CLR
03:20 26.8 °C 14.6 °C 1011.2 hPa SSE 5.0 km/h 7.4 km/h 47% 0.0 mm CLR
03:25 26.7 °C 13.8 °C 1011.2 hPa SSW 5.0 km/h 9.5 km/h 45% 0.0 mm CLR
03:30 26.6 °C 13.7 °C 1011.2 hPa South 6.4 km/h 7.4 km/h 45% 0.0 mm CLR
03:35 26.6 °C 13.7 °C 1011.1 hPa South 6.4 km/h 9.3 km/h 45% 0.0 mm CLR
03:40 26.5 °C 13.3 °C 1011.1 hPa SSW 5.8 km/h 7.4 km/h 44% 0.0 mm CLR
03:45 26.6 °C 13.3 °C 1011.1 hPa SW 5.8 km/h 7.4 km/h 44% 0.0 mm CLR
03:50 26.6 °C 13.3 °C 1011.0 hPa SSW 4.7 km/h 5.8 km/h 44% 0.0 mm CLR
03:55 26.6 °C 13.0 °C 1011.0 hPa West 4.7 km/h 7.4 km/h 43% 0.0 mm CLR
04:00 26.6 °C 13.0 °C 1011.0 hPa WSW 5.0 km/h 7.4 km/h 43% 0.0 mm CLR
04:05 26.6 °C 13.0 °C 1011.0 hPa SW 5.0 km/h 7.4 km/h 43% 0.0 mm CLR
04:10 26.6 °C 13.0 °C 1011.0 hPa SSW 5.0 km/h 7.4 km/h 43% 0.0 mm CLR
04:15 26.5 °C 12.6 °C 1011.0 hPa SSW 5.0 km/h 8.4 km/h 42% 0.0 mm CLR
04:20 26.5 °C 12.6 °C 1011.0 hPa SW 5.0 km/h 7.4 km/h 42% 0.0 mm CLR
04:25 26.6 °C 12.6 °C 1011.0 hPa SW 5.0 km/h 7.4 km/h 42% 0.0 mm CLR
04:30 26.5 °C 12.6 °C 1011.0 hPa WSW 4.7 km/h 7.4 km/h 42% 0.0 mm CLR
04:35 26.5 °C 12.6 °C 1011.0 hPa SW 4.7 km/h 7.4 km/h 42% 0.0 mm CLR
04:40 26.4 °C 12.4 °C 1011.0 hPa West 5.0 km/h 9.3 km/h 42% 0.0 mm CLR
04:45 26.3 °C 12.4 °C 1011.0 hPa SW 5.0 km/h 7.4 km/h 42% 0.0 mm CLR
04:50 26.3 °C 12.7 °C 1011.0 hPa SSE 5.8 km/h 9.3 km/h 43% 0.0 mm CLR
04:55 26.1 °C 12.6 °C 1011.0 hPa South 5.8 km/h 7.4 km/h 43% 0.0 mm CLR
05:00 25.9 °C 12.3 °C 1011.0 hPa SW 5.8 km/h 7.4 km/h 43% 0.0 mm CLR
05:05 25.8 °C 12.3 °C 1010.9 hPa SW 5.8 km/h 7.4 km/h 43% 0.0 mm CLR
05:10 25.8 °C 12.6 °C 1010.9 hPa WSW 5.0 km/h 7.4 km/h 44% 0.0 mm CLR
05:15 25.8 °C 12.6 °C 1010.9 hPa WSW 5.0 km/h 5.6 km/h 44% 0.0 mm CLR
05:20 25.7 °C 12.6 °C 1011.0 hPa WSW 5.8 km/h 7.6 km/h 44% 0.0 mm CLR
05:25 25.6 °C 12.4 °C 1011.0 hPa SW 5.8 km/h 14.8 km/h 44% 0.0 mm CLR
05:30 25.5 °C 12.3 °C 1011.0 hPa SW 6.9 km/h 13.0 km/h 44% 0.0 mm CLR
05:35 25.4 °C 11.9 °C 1010.9 hPa SW 6.9 km/h 11.1 km/h 43% 0.0 mm CLR
05:40 25.4 °C 11.9 °C 1010.9 hPa South 7.6 km/h 9.3 km/h 43% 0.0 mm CLR
05:45 25.3 °C 11.8 °C 1010.9 hPa SSW 7.6 km/h 14.0 km/h 43% 0.0 mm CLR
05:50 25.1 °C 11.6 °C 1011.1 hPa South 8.4 km/h 14.8 km/h 43% 0.0 mm CLR
05:55 25.0 °C 11.6 °C 1011.1 hPa SSW 8.4 km/h 11.1 km/h 43% 0.0 mm CLR
06:00 25.0 °C 11.6 °C 1011.1 hPa SW 8.4 km/h 10.3 km/h 43% 0.0 mm CLR
06:05 25.0 °C 11.9 °C 1011.1 hPa South 8.4 km/h 14.8 km/h 44% 0.0 mm CLR
06:10 25.0 °C 11.9 °C 1011.1 hPa SSW 8.7 km/h 13.0 km/h 44% 0.0 mm CLR
06:15 25.0 °C 11.9 °C 1011.1 hPa SSW 8.7 km/h 9.5 km/h 44% 0.0 mm CLR
06:20 25.0 °C 12.2 °C 1011.1 hPa SSE 7.6 km/h 9.3 km/h 45% 0.0 mm CLR
06:25 24.9 °C 12.5 °C 1011.1 hPa SSW 7.6 km/h 9.3 km/h 46% 0.0 mm CLR
06:30 24.9 °C 12.5 °C 1011.1 hPa South 7.6 km/h 7.4 km/h 46% 0.0 mm CLR
06:35 25.0 °C 12.2 °C 1011.4 hPa SW 7.6 km/h 11.1 km/h 45% 0.0 mm CLR
06:40 25.1 °C 12.3 °C 1011.4 hPa SW 6.4 km/h 9.5 km/h 45% 0.0 mm CLR
06:45 25.2 °C 12.4 °C 1011.4 hPa West 6.4 km/h 5.6 km/h 45% 0.0 mm CLR
06:50 25.2 °C 12.4 °C 1011.3 hPa SW 5.8 km/h 6.9 km/h 45% 0.0 mm CLR
06:55 25.1 °C 12.3 °C 1011.3 hPa SW 5.8 km/h 7.4 km/h 45% 0.0 mm CLR
07:00 24.9 °C 12.2 °C 1011.3 hPa West 5.0 km/h 7.6 km/h 45% 0.0 mm CLR
07:05 24.9 °C 12.2 °C 1011.4 hPa WSW 5.0 km/h 7.4 km/h 45% 0.0 mm CLR
07:10 24.8 °C 12.1 °C 1011.4 hPa WSW 5.0 km/h 7.4 km/h 45% 0.0 mm CLR
07:15 24.7 °C 11.9 °C 1011.4 hPa WSW 5.0 km/h 6.4 km/h 45% 0.0 mm CLR
07:20 24.7 °C 11.9 °C 1011.3 hPa SSW 5.0 km/h 5.8 km/h 45% 0.0 mm CLR
07:25 24.7 °C 11.9 °C 1011.3 hPa West 5.0 km/h 5.8 km/h 45% 0.0 mm CLR
07:30 24.8 °C 12.1 °C 1011.3 hPa WNW 4.7 km/h 3.7 km/h 45% 0.0 mm CLR
07:35 24.8 °C 12.4 °C 1011.4 hPa WSW 4.7 km/h 5.6 km/h 46% 0.0 mm CLR
07:40 24.7 °C 12.6 °C 1011.4 hPa ESE 3.9 km/h 7.4 km/h 47% 0.0 mm CLR
07:45 24.6 °C 13.2 °C 1011.4 hPa SE 3.9 km/h 7.4 km/h 49% 0.0 mm CLR
07:50 24.4 °C 13.3 °C 1011.5 hPa SSE 3.9 km/h 5.8 km/h 50% 0.0 mm CLR
07:55 24.2 °C 13.1 °C 1011.5 hPa SSE 3.9 km/h 7.4 km/h 50% 0.0 mm CLR
08:00 24.1 °C 13.0 °C 1011.5 hPa SSE 4.7 km/h 5.6 km/h 50% 0.0 mm CLR
08:05 24.1 °C 12.7 °C 1011.5 hPa SSW 4.7 km/h 7.4 km/h 49% 0.0 mm CLR
08:10 24.3 °C 12.9 °C 1011.5 hPa South 3.9 km/h 5.6 km/h 49% 0.0 mm CLR
08:15 24.4 °C 13.0 °C 1011.5 hPa South 3.9 km/h 6.4 km/h 49% 0.0 mm CLR
08:20 24.7 °C 12.9 °C 1011.3 hPa SSW 3.9 km/h 7.4 km/h 48% 0.0 mm CLR
08:25 24.9 °C 12.8 °C 1011.3 hPa SSW 3.9 km/h 9.3 km/h 47% 0.0 mm CLR
08:30 25.2 °C 12.8 °C 1011.3 hPa SW 5.0 km/h 7.4 km/h 46% 0.0 mm CLR
08:35 25.4 °C 12.6 °C 1011.4 hPa WNW 5.0 km/h 5.6 km/h 45% 0.0 mm CLR
08:40 25.7 °C 12.6 °C 1011.4 hPa SW 4.7 km/h 7.4 km/h 44% 0.0 mm CLR
08:45 25.9 °C 12.7 °C 1011.4 hPa South 4.7 km/h 7.4 km/h 44% 0.0 mm CLR
08:50 26.1 °C 12.9 °C 1011.5 hPa WSW 5.8 km/h 5.6 km/h 44% 0.0 mm CLR
08:55 26.2 °C 12.6 °C 1011.5 hPa SW 5.8 km/h 7.4 km/h 43% 0.0 mm CLR
09:00 26.4 °C 12.8 °C 1011.5 hPa WSW 4.7 km/h 5.6 km/h 43% 0.0 mm CLR
09:05 26.7 °C 12.7 °C 1011.6 hPa SSW 4.7 km/h 5.6 km/h 42% 0.0 mm CLR
09:10 26.9 °C 12.9 °C 1011.6 hPa South 3.9 km/h 5.6 km/h 42% 0.0 mm CLR
09:15 27.1 °C 12.7 °C 1011.6 hPa WSW 3.9 km/h 7.4 km/h 41% 0.0 mm CLR
09:20 27.4 °C 13.0 °C 1011.7 hPa SSW 3.9 km/h 3.7 km/h 41% 0.0 mm CLR
09:25 27.7 °C 12.9 °C 1011.7 hPa South 3.9 km/h 7.4 km/h 40% 0.0 mm CLR
09:30 28.0 °C 12.8 °C 1011.7 hPa SW 3.9 km/h 9.3 km/h 39% 0.0 mm CLR
09:35 28.2 °C 12.9 °C 1011.7 hPa SSW 3.9 km/h 7.4 km/h 39% 0.0 mm CLR
09:40 28.4 °C 12.3 °C 1011.7 hPa SW 5.0 km/h 11.1 km/h 37% 0.0 mm CLR
09:45 28.7 °C 12.2 °C 1011.7 hPa SW 5.0 km/h 9.3 km/h 36% 0.0 mm CLR
09:50 28.9 °C 11.4 °C 1011.7 hPa SW 6.9 km/h 11.1 km/h 34% 0.0 mm CLR
09:55 29.1 °C 11.6 °C 1011.7 hPa SW 6.9 km/h 11.1 km/h 34% 0.0 mm CLR
10:00 29.2 °C 11.7 °C 1011.7 hPa SW 8.4 km/h 13.0 km/h 34% 0.0 mm CLR
10:05 29.4 °C 11.4 °C 1011.8 hPa SSE 8.4 km/h 11.1 km/h 33% 0.0 mm CLR
10:10 29.6 °C 11.6 °C 1011.8 hPa SW 8.4 km/h 11.1 km/h 33% 0.0 mm CLR
10:15 29.8 °C 11.8 °C 1011.8 hPa SSW 8.4 km/h 14.0 km/h 33% 0.0 mm CLR
10:20 29.9 °C 11.9 °C 1011.8 hPa South 8.4 km/h 14.8 km/h 33% 0.0 mm CLR
10:25 30.1 °C 12.1 °C 1011.8 hPa SW 8.4 km/h 11.1 km/h 33% 0.0 mm CLR
10:30 30.4 °C 11.8 °C 1011.8 hPa SSW 10.0 km/h 16.7 km/h 32% 0.0 mm CLR
10:35 30.7 °C 12.1 °C 1011.7 hPa SSW 10.0 km/h 8.4 km/h 32% 0.0 mm CLR
10:40 31.2 °C 11.6 °C 1011.7 hPa SW 8.4 km/h 11.1 km/h 30% 0.0 mm CLR
10:45 31.6 °C 11.4 °C 1011.7 hPa South 8.4 km/h 13.0 km/h 29% 0.0 mm CLR
10:50 31.7 °C 10.9 °C 1011.7 hPa SSE 9.5 km/h 13.0 km/h 28% 0.0 mm CLR
10:55 32.0 °C 11.2 °C 1011.7 hPa SW 9.5 km/h 14.8 km/h 28% 0.0 mm CLR
11:00 32.3 °C 11.4 °C 1011.7 hPa SSE 7.6 km/h 13.0 km/h 28% 0.0 mm CLR
11:05 32.5 °C 11.1 °C 1011.7 hPa South 7.6 km/h 13.0 km/h 27% 0.0 mm CLR
11:10 32.7 °C 11.3 °C 1011.7 hPa SSW 8.7 km/h 14.8 km/h 27% 0.0 mm CLR
11:15 32.7 °C 11.3 °C 1011.7 hPa SW 8.7 km/h 11.9 km/h 27% 0.0 mm CLR
11:20 32.9 °C 11.4 °C 1011.7 hPa SW 9.5 km/h 13.0 km/h 27% 0.0 mm CLR
11:25 33.1 °C 11.6 °C 1011.7 hPa SSW 9.5 km/h 11.1 km/h 27% 0.0 mm CLR
11:30 33.4 °C 11.3 °C 1011.7 hPa South 6.4 km/h 11.1 km/h 26% 0.0 mm CLR
11:35 33.6 °C 11.4 °C 1011.7 hPa SSW 6.4 km/h 9.3 km/h 26% 0.0 mm CLR
11:40 33.8 °C 11.6 °C 1011.7 hPa West 6.9 km/h 11.9 km/h 26% 0.0 mm CLR
11:45 34.0 °C 11.8 °C 1011.7 hPa SW 6.9 km/h 11.1 km/h 26% 0.0 mm CLR
11:50 34.1 °C 11.3 °C 1011.6 hPa West 6.4 km/h 9.3 km/h 25% 0.0 mm CLR
11:55 34.3 °C 12.1 °C 1011.6 hPa South 6.4 km/h 14.8 km/h 26% 0.0 mm CLR
12:00 34.6 °C 11.7 °C 1011.6 hPa South 6.9 km/h 9.3 km/h 25% 0.0 mm CLR
12:05 34.9 °C 11.9 °C 1011.6 hPa SW 6.9 km/h 14.8 km/h 25% 0.0 mm CLR
12:10 35.1 °C 11.5 °C 1011.6 hPa SSW 6.9 km/h 11.1 km/h 24% 0.0 mm CLR
12:15 35.3 °C 11.7 °C 1011.6 hPa WNW 6.9 km/h 9.3 km/h 24% 0.0 mm CLR
12:20 35.5 °C 11.2 °C 1011.5 hPa South 6.9 km/h 11.1 km/h 23% 0.0 mm CLR
12:25 35.7 °C 11.3 °C 1011.5 hPa SSW 6.9 km/h 14.8 km/h 23% 0.0 mm CLR
12:30 35.7 °C 11.3 °C 1011.5 hPa SSE 8.7 km/h 13.0 km/h 23% 0.0 mm CLR
12:35 35.8 °C 11.4 °C 1011.4 hPa SSW 8.7 km/h 11.1 km/h 23% 0.0 mm CLR
12:40 36.1 °C 11.7 °C 1011.4 hPa West 7.6 km/h 14.8 km/h 23% 0.0 mm CLR
12:45 36.2 °C 11.1 °C 1011.4 hPa South 7.6 km/h 13.7 km/h 22% 0.0 mm CLR
12:50 36.3 °C 11.2 °C 1011.4 hPa SSW 8.7 km/h 11.1 km/h 22% 0.0 mm CLR
12:55 36.5 °C 11.3 °C 1011.4 hPa SSW 8.7 km/h 11.1 km/h 22% 0.0 mm CLR
13:00 36.6 °C 10.7 °C 1011.4 hPa NNW 6.9 km/h 8.7 km/h 21% 0.0 mm CLR
13:05 36.7 °C 11.5 °C 1011.2 hPa South 6.9 km/h 9.3 km/h 22% 0.0 mm CLR
13:10 36.8 °C 10.9 °C 1011.2 hPa SSW 7.6 km/h 9.3 km/h 21% 0.0 mm CLR
13:15 37.1 °C 11.2 °C 1011.2 hPa West 7.6 km/h 5.6 km/h 21% 0.0 mm CLR
13:20 37.4 °C 10.7 °C 1011.2 hPa NNW 3.9 km/h 3.7 km/h 20% 0.0 mm CLR
13:25 37.7 °C 10.1 °C 1011.2 hPa NW 3.9 km/h 8.4 km/h 19% 0.0 mm CLR
13:30 37.8 °C 10.2 °C 1011.2 hPa NW 4.7 km/h 9.3 km/h 19% 0.0 mm CLR
13:35 37.9 °C 9.5 °C 1011.0 hPa NE 4.7 km/h 11.1 km/h 18% 0.0 mm CLR
13:40 37.8 °C 9.4 °C 1011.0 hPa NE 6.4 km/h 7.4 km/h 18% 0.0 mm CLR
13:45 38.0 °C 9.6 °C 1011.0 hPa East 6.4 km/h 9.3 km/h 18% 0.0 mm CLR
13:50 38.2 °C 9.7 °C 1010.8 hPa NE 5.0 km/h 12.2 km/h 18% 0.0 mm CLR
13:55 38.3 °C 10.6 °C 1010.8 hPa East 5.0 km/h 11.1 km/h 19% 0.0 mm CLR
14:00 38.5 °C 9.9 °C 1010.8 hPa East 6.4 km/h 7.4 km/h 18% 0.0 mm CLR
14:05 38.7 °C 9.3 °C 1010.7 hPa SE 6.4 km/h 9.3 km/h 17% 0.0 mm CLR
14:10 38.8 °C 10.2 °C 1010.7 hPa NNE 5.8 km/h 10.3 km/h 18% 0.0 mm CLR
14:15 38.9 °C 9.4 °C 1010.7 hPa East 5.8 km/h 9.3 km/h 17% 0.0 mm CLR
14:20 39.0 °C 9.5 °C 1010.6 hPa NNE 5.0 km/h 11.1 km/h 17% 0.0 mm CLR
14:25 39.2 °C 9.7 °C 1010.6 hPa North 5.0 km/h 9.3 km/h 17% 0.0 mm CLR
14:30 39.3 °C 9.8 °C 1010.6 hPa West 5.0 km/h 3.7 km/h 17% 0.0 mm CLR
14:35 39.4 °C 9.8 °C 1010.4 hPa North 5.0 km/h 9.3 km/h 17% 0.0 mm CLR
14:40 39.6 °C 10.0 °C 1010.4 hPa ESE 4.7 km/h 12.2 km/h 17% 0.0 mm CLR
14:45 39.6 °C 10.0 °C 1010.4 hPa NE 4.7 km/h 7.4 km/h 17% 0.0 mm CLR
14:50 39.8 °C 10.2 °C 1010.2 hPa ENE 4.7 km/h 5.6 km/h 17% 0.0 mm CLR
14:55 39.9 °C 10.2 °C 1010.2 hPa East 4.7 km/h 13.0 km/h 17% 0.0 mm CLR
15:00 39.8 °C 10.2 °C 1010.2 hPa East 5.0 km/h 3.7 km/h 17% 0.0 mm CLR
15:05 40.1 °C 10.4 °C 1010.0 hPa NNE 5.0 km/h 14.8 km/h 17% 0.0 mm CLR
15:10 40.0 °C 10.3 °C 1010.0 hPa NNW 6.4 km/h 11.1 km/h 17% 0.0 mm CLR
15:15 40.0 °C 10.3 °C 1010.0 hPa NNW 6.4 km/h 8.4 km/h 17% 0.0 mm CLR
15:20 40.0 °C 10.3 °C 1009.8 hPa NE 6.9 km/h 9.3 km/h 17% 0.0 mm CLR
15:25 40.1 °C 12.1 °C 1009.8 hPa SSE 6.9 km/h 13.0 km/h 19% 0.0 mm CLR
15:30 40.1 °C 12.1 °C 1009.8 hPa SE 9.5 km/h 9.5 km/h 19% 0.0 mm CLR
15:35 40.0 °C 12.8 °C 1009.7 hPa ESE 9.5 km/h 16.7 km/h 20% 0.0 mm CLR
15:40 40.0 °C 12.8 °C 1009.7 hPa SE 11.9 km/h 14.8 km/h 20% 0.0 mm CLR
15:45 40.1 °C 12.9 °C 1009.7 hPa East 11.9 km/h 20.4 km/h 20% 0.0 mm CLR
15:50 40.1 °C 12.9 °C 1009.6 hPa ESE 11.1 km/h 14.0 km/h 20% 0.0 mm CLR
15:55 39.9 °C 13.4 °C 1009.6 hPa East 11.1 km/h 24.1 km/h 21% 0.0 mm CLR
16:00 39.9 °C 13.4 °C 1009.6 hPa ENE 13.7 km/h 18.5 km/h 21% 0.0 mm CLR
16:05 40.1 °C 13.6 °C 1009.5 hPa SE 13.7 km/h 13.0 km/h 21% 0.0 mm CLR
16:10 40.2 °C 12.9 °C 1009.5 hPa SE 10.3 km/h 22.2 km/h 20% 0.0 mm CLR
16:15 40.2 °C 12.9 °C 1009.5 hPa ESE 10.3 km/h 23.7 km/h 20% 0.0 mm CLR
16:20 40.2 °C 12.9 °C 1009.3 hPa SSE 13.7 km/h 18.5 km/h 20% 0.0 mm CLR
16:25 40.0 °C 12.8 °C 1009.3 hPa ESE 13.7 km/h 16.7 km/h 20% 0.0 mm CLR
16:30 40.1 °C 12.9 °C 1009.3 hPa ESE 11.9 km/h 18.5 km/h 20% 0.0 mm CLR
16:35 40.1 °C 12.9 °C 1009.1 hPa SE 11.9 km/h 20.1 km/h 20% 0.0 mm CLR
16:40 40.2 °C 12.9 °C 1009.1 hPa SE 11.1 km/h 11.1 km/h 20% 0.0 mm CLR
16:45 40.3 °C 12.2 °C 1009.1 hPa SSE 11.1 km/h 18.5 km/h 19% 0.0 mm CLR
16:50 40.2 °C 12.9 °C 1009.0 hPa East 13.0 km/h 13.0 km/h 20% 0.0 mm CLR
16:55 40.1 °C 12.1 °C 1009.0 hPa ESE 13.0 km/h 16.7 km/h 19% 0.0 mm CLR
17:00 40.1 °C 12.1 °C 1009.0 hPa South 11.9 km/h 14.8 km/h 19% 0.0 mm CLR
17:05 40.1 °C 12.1 °C 1008.9 hPa SSE 11.9 km/h 15.6 km/h 19% 0.0 mm CLR
17:10 40.1 °C 12.1 °C 1008.9 hPa SE 11.1 km/h 18.5 km/h 19% 0.0 mm CLR
17:15 40.3 °C 12.2 °C 1008.9 hPa South 11.1 km/h 14.8 km/h 19% 0.0 mm CLR
17:20 40.3 °C 12.2 °C 1008.8 hPa East 11.9 km/h 20.9 km/h 19% 0.0 mm CLR
17:25 40.1 °C 12.1 °C 1008.8 hPa ESE 11.9 km/h 20.4 km/h 19% 0.0 mm CLR
17:30 40.2 °C 12.2 °C 1008.8 hPa ESE 14.8 km/h 24.1 km/h 19% 0.0 mm CLR
17:35 40.2 °C 12.9 °C 1008.7 hPa ESE 14.8 km/h 20.4 km/h 20% 0.0 mm CLR
17:40 40.2 °C 12.2 °C 1008.7 hPa ESE 14.0 km/h 16.7 km/h 19% 0.0 mm CLR
17:45 40.2 °C 12.2 °C 1008.7 hPa SE 14.0 km/h 16.7 km/h 19% 0.0 mm CLR
17:50 40.2 °C 12.2 °C 1008.5 hPa ESE 12.2 km/h 20.4 km/h 19% 0.0 mm CLR
17:55 40.0 °C 12.0 °C 1008.5 hPa ESE 12.2 km/h 20.9 km/h 19% 0.0 mm CLR
18:00 39.9 °C 11.9 °C 1008.5 hPa East 14.0 km/h 20.9 km/h 19% 0.0 mm CLR
18:05 39.7 °C 11.8 °C 1008.4 hPa ENE 14.0 km/h 27.8 km/h 19% 0.0 mm CLR
18:10 39.7 °C 11.8 °C 1008.4 hPa SE 16.4 km/h 22.2 km/h 19% 0.0 mm CLR
18:15 39.7 °C 12.6 °C 1008.4 hPa SE 16.4 km/h 14.8 km/h 20% 0.0 mm CLR
18:20 39.8 °C 12.6 °C 1008.3 hPa ESE 11.1 km/h 14.8 km/h 20% 0.0 mm CLR
18:25 40.0 °C 12.8 °C 1008.3 hPa ESE 11.1 km/h 18.5 km/h 20% 0.0 mm CLR
18:30 39.9 °C 12.7 °C 1008.3 hPa SE 11.1 km/h 17.2 km/h 20% 0.0 mm CLR
18:35 39.9 °C 12.7 °C 1008.3 hPa SE 11.1 km/h 13.0 km/h 20% 0.0 mm CLR
18:40 40.1 °C 12.9 °C 1008.3 hPa East 8.7 km/h 13.0 km/h 20% 0.0 mm CLR
18:45 39.8 °C 13.4 °C 1008.3 hPa ESE 8.7 km/h 18.5 km/h 21% 0.0 mm CLR
18:50 39.6 °C 13.9 °C 1008.3 hPa ESE 12.2 km/h 18.5 km/h 22% 0.0 mm CLR
18:55 39.3 °C 14.3 °C 1008.3 hPa ESE 12.2 km/h 16.7 km/h 23% 0.0 mm CLR
19:00 39.2 °C 14.3 °C 1008.3 hPa SSE 13.7 km/h 16.7 km/h 23% 0.0 mm CLR
19:05 39.2 °C 14.3 °C 1008.2 hPa ESE 13.7 km/h 11.1 km/h 23% 0.0 mm CLR
19:10 39.3 °C 14.3 °C 1008.2 hPa ESE 10.3 km/h 16.7 km/h 23% 0.0 mm CLR
19:15 39.1 °C 14.8 °C 1008.2 hPa East 10.3 km/h 14.8 km/h 24% 0.0 mm CLR
19:20 38.9 °C 14.7 °C 1008.1 hPa ESE 12.2 km/h 16.7 km/h 24% 0.0 mm CLR
19:25 38.8 °C 14.6 °C 1008.1 hPa SE 12.2 km/h 18.5 km/h 24% 0.0 mm CLR
19:30 38.8 °C 14.6 °C 1008.1 hPa SE 10.3 km/h 11.1 km/h 24% 0.0 mm CLR
19:35 38.8 °C 14.6 °C 1008.2 hPa ESE 10.3 km/h 9.3 km/h 24% 0.0 mm CLR
19:40 38.8 °C 14.6 °C 1008.2 hPa East 8.4 km/h 11.1 km/h 24% 0.0 mm CLR
19:45 38.7 °C 14.5 °C 1008.2 hPa ESE 8.4 km/h 14.8 km/h 24% 0.0 mm CLR
19:50 38.6 °C 14.4 °C 1008.1 hPa ESE 9.5 km/h 9.3 km/h 24% 0.0 mm CLR
19:55 38.6 °C 14.4 °C 1008.1 hPa SE 9.5 km/h 9.3 km/h 24% 0.0 mm CLR
20:00 38.4 °C 14.9 °C 1008.1 hPa ENE 6.9 km/h 9.3 km/h 25% 0.0 mm CLR
20:05 38.2 °C 14.7 °C 1008.1 hPa SE 6.9 km/h 13.0 km/h 25% 0.0 mm CLR
20:10 37.9 °C 15.1 °C 1008.1 hPa SE 8.4 km/h 13.0 km/h 26% 0.0 mm CLR
20:15 37.6 °C 14.8 °C 1008.1 hPa East 8.4 km/h 16.1 km/h 26% 0.0 mm CLR
20:20 37.3 °C 15.2 °C 1008.3 hPa ESE 10.3 km/h 14.8 km/h 27% 0.0 mm CLR
20:25 37.2 °C 15.1 °C 1008.3 hPa East 10.3 km/h 11.1 km/h 27% 0.0 mm CLR
20:30 37.1 °C 15.6 °C 1008.3 hPa ESE 8.7 km/h 9.3 km/h 28% 0.0 mm CLR
20:35 36.9 °C 15.4 °C 1008.4 hPa ESE 8.7 km/h 11.1 km/h 28% 0.0 mm CLR
20:40 36.8 °C 15.3 °C 1008.4 hPa ESE 6.9 km/h 11.1 km/h 28% 0.0 mm CLR
20:45 36.7 °C 15.8 °C 1008.4 hPa ESE 6.9 km/h 10.0 km/h 29% 0.0 mm CLR
20:50 36.6 °C 15.7 °C 1008.5 hPa ESE 7.6 km/h 11.1 km/h 29% 0.0 mm CLR
20:55 36.4 °C 15.5 °C 1008.5 hPa SE 7.6 km/h 11.1 km/h 29% 0.0 mm CLR
21:00 36.2 °C 15.3 °C 1008.5 hPa ESE 7.6 km/h 11.1 km/h 29% 0.0 mm CLR
21:05 35.9 °C 15.6 °C 1008.7 hPa East 7.6 km/h 9.3 km/h 30% 0.0 mm CLR
21:10 35.8 °C 15.5 °C 1008.7 hPa WNW 6.9 km/h 9.3 km/h 30% 0.0 mm CLR
21:15 35.6 °C 15.3 °C 1008.7 hPa NNW 6.9 km/h 9.3 km/h 30% 0.0 mm CLR
21:20 35.4 °C 15.2 °C 1009.1 hPa NNE 5.8 km/h 11.9 km/h 30% 0.0 mm CLR
21:25 35.1 °C 15.4 °C 1009.1 hPa NNE 5.8 km/h 13.0 km/h 31% 0.0 mm CLR
21:30 34.6 °C 16.0 °C 1009.1 hPa NNE 8.4 km/h 13.0 km/h 33% 0.0 mm CLR
21:35 34.0 °C 18.1 °C 1009.4 hPa East 8.4 km/h 16.7 km/h 39% 0.0 mm CLR
21:40 33.6 °C 18.9 °C 1009.4 hPa NNW 12.2 km/h 14.8 km/h 42% 0.0 mm CLR
21:45 33.2 °C 19.3 °C 1009.4 hPa ENE 12.2 km/h 16.7 km/h 44% 0.0 mm CLR
21:50 32.8 °C 20.0 °C 1009.7 hPa ENE 10.0 km/h 13.0 km/h 47% 0.0 mm CLR
21:55 32.6 °C 20.2 °C 1009.7 hPa ENE 10.0 km/h 10.0 km/h 48% 0.0 mm CLR
22:00 32.4 °C 20.3 °C 1009.7 hPa NNE 8.4 km/h 10.0 km/h 49% 0.0 mm CLR
22:05 32.2 °C 20.1 °C 1010.0 hPa NE 8.4 km/h 8.4 km/h 49% 0.0 mm CLR
22:10 32.1 °C 20.4 °C 1010.0 hPa North 6.9 km/h 7.4 km/h 50% 0.0 mm CLR
22:15 31.9 °C 20.2 °C 1010.0 hPa NNE 6.9 km/h 11.1 km/h 50% 0.0 mm CLR
22:20 31.7 °C 20.3 °C 1010.3 hPa North 6.4 km/h 11.1 km/h 51% 0.0 mm CLR
22:25 31.6 °C 20.6 °C 1010.3 hPa NNW 6.4 km/h 7.4 km/h 52% 0.0 mm CLR
22:30 31.4 °C 21.0 °C 1010.3 hPa NW 6.4 km/h 10.0 km/h 54% 0.0 mm CLR
22:35 31.3 °C 21.2 °C 1010.7 hPa NNW 6.4 km/h 7.4 km/h 55% 0.0 mm CLR
22:40 31.2 °C 21.1 °C 1010.7 hPa NW 5.0 km/h 7.4 km/h 55% 0.0 mm CLR
22:45 31.1 °C 21.3 °C 1010.7 hPa North 5.0 km/h 8.4 km/h 56% 0.0 mm CLR
22:50 31.0 °C 21.2 °C 1011.0 hPa NNW 3.9 km/h 9.3 km/h 56% 0.0 mm CLR
22:55 30.8 °C 21.3 °C 1011.0 hPa NNW 3.9 km/h 9.5 km/h 57% 0.0 mm CLR
23:00 30.7 °C 21.5 °C 1011.0 hPa NNE 5.0 km/h 3.7 km/h 58% 0.0 mm CLR
23:05 30.7 °C 21.5 °C 1011.0 hPa NW 5.0 km/h 7.4 km/h 58% 0.0 mm CLR
23:10 30.4 °C 21.8 °C 1011.0 hPa NNW 3.9 km/h 5.6 km/h 60% 0.0 mm CLR
23:15 30.3 °C 21.9 °C 1011.0 hPa NNW 3.9 km/h 5.6 km/h 61% 0.0 mm CLR
23:20 30.2 °C 22.1 °C 1011.1 hPa NW 3.2 km/h 9.5 km/h 62% 0.0 mm CLR
23:25 29.9 °C 22.1 °C 1011.1 hPa NE 3.2 km/h 10.3 km/h 63% 0.0 mm CLR
23:30 29.8 °C 22.3 °C 1011.1 hPa West 6.4 km/h 9.5 km/h 64% 0.0 mm CLR
23:35 29.7 °C 22.2 °C 1011.2 hPa NE 6.4 km/h 9.3 km/h 64% 0.0 mm CLR
23:40 29.6 °C 22.1 °C 1011.2 hPa NNW 5.8 km/h 6.9 km/h 64% 0.0 mm CLR
23:45 29.6 °C 22.1 °C 1011.2 hPa NW 5.8 km/h 7.6 km/h 64% 0.0 mm CLR
23:50 29.5 °C 22.2 °C 1011.1 hPa NE 3.9 km/h 3.7 km/h 65% 0.0 mm CLR
23:55 29.4 °C 22.1 °C 1011.1 hPa West 3.9 km/h 7.4 km/h 65% 0.0 mm CLR
Murcia-Puente Tocinos, España
Compliments of Weather Underground - 2.75 mb

La estación de MeteoMurcia.com, publica sus datos en los siguientes proyectos:

Weather Underground PWS IMURCIAP2 Meteoclimatic www.awekas.at

W3Counter
Web Analytics